Flight Track Log - Related Links

Times and Time Zones

All times are in EDT time to prevent confusion due to time zone crossing. See the N53NW flight status page for this flight to view local times or setup timezone preferences in your user account.

Time Position Orientation Groundspeed Altitude Reporting Facility
EDT Latitude Longitude Course Direction KTS MPH feet Rate Location/Type
Fri 10:20:41 AM 38.0036 -84.6403 288° West 234 269 3,300  Level Indianapolis Center
Fri 10:21:43 AM 37.9656 -84.7083 235° Southwest 246 283 8,400 3,408 Climbing Indianapolis Center
Fri 10:22:46 AM 37.9225 -84.7994 239° Southwest 258 297 10,400 1,920 Climbing Indianapolis Center
Fri 10:23:48 AM 37.8814 -84.8833 238° Southwest 275 316 12,400 1,355 Climbing Indianapolis Center
Fri 10:24:50 AM 37.8911 -84.9769 278° West 288 331 13,200 1,210 Climbing Indianapolis Center
Fri 10:25:52 AM 37.9225 -85.0692 293° West 284 327 14,900 2,129 Climbing Indianapolis Center
Fri 10:26:00 AM 38.4537 -84.9385 288° West  Level Estimated
Fri 10:26:54 AM 37.9550 -85.1575 295° West 279 321 17,600  Level Indianapolis Center
Fri 10:27:56 AM 38.0239 -85.2131 328° Northwest 261 300 20,400 2,661 Climbing Indianapolis Center
Fri 10:28:58 AM 38.0942 -85.2361 346° North 262 302 23,100 2,661 Climbing Indianapolis Center
Fri 10:30:00 AM 38.1633 -85.2594 345° North 258 297 25,900 2,371 Climbing Indianapolis Center
Fri 10:31:02 AM 38.2317 -85.2808 346° North 253 291 28,000 1,016 Climbing Indianapolis Center
Fri 10:32:04 AM 38.3106 -85.3086 345° North 290 334 28,000  Level Indianapolis Center
Fri 10:33:06 AM 38.3969 -85.3369 346° North 315 362 28,000  Level Indianapolis Center
Fri 10:34:08 AM 38.4825 -85.3650 346° North 317 365 28,000  Level Indianapolis Center
Fri 10:35:10 AM 38.5847 -85.3981 346° North 315 362 28,000  Level Indianapolis Center
Fri 10:36:12 AM 38.6614 -85.4236 345° North 314 361 28,000  Level Indianapolis Center
Fri 10:37:14 AM 38.7461 -85.4514 346° North 315 362 28,000 -339 Level Indianapolis Center
Fri 10:38:16 AM 38.8458 -85.4850 345° North 312 359 27,300 -968 Descending Indianapolis Center
Fri 10:39:18 AM 38.9308 -85.5131 346° North 315 362 26,000 -629 Descending Indianapolis Center
Fri 10:40:20 AM 39.0111 -85.5400 345° North 303 349 26,000  Level Indianapolis Center
Fri 10:41:22 AM 39.0911 -85.5672 345° North 300 345 26,000  Level Indianapolis Center
Fri 10:42:24 AM 39.1731 -85.5944 346° North 305 351 26,000  Level Indianapolis Center
Fri 10:43:27 AM 39.2547 -85.6214 346° North 305 351 26,000  Level Indianapolis Center
Fri 10:44:29 AM 39.3544 -85.6553 345° North 309 356 26,000  Level Indianapolis Center
Fri 10:45:31 AM 39.4361 -85.6825 346° North 306 352 26,000 -339 Level Indianapolis Center
Fri 10:46:33 AM 39.5181 -85.7103 345° North 306 352 25,300 -968 Descending Indianapolis Center
Fri 10:47:35 AM 39.5972 -85.7372 345° North 300 345 24,000 -629 Descending Indianapolis Center
Fri 10:48:37 AM 39.6753 -85.7631 346° North 293 337 24,000  Level Indianapolis Center
Fri 10:49:39 AM 39.7717 -85.7964 345° North 300 345 24,000  Level Indianapolis Center
Fri 10:50:41 AM 39.8506 -85.8322 341° North 302 348 24,000  Level Indianapolis Center
Fri 10:51:43 AM 39.9286 -85.8714 339° North 303 349 24,000  Level Indianapolis Center
Fri 10:52:45 AM 40.0067 -85.9092 340° North 301 346 24,000  Level Indianapolis Center
Fri 10:53:47 AM 40.1006 -85.9556 339° North 303 349 24,000  Level Indianapolis Center
Fri 10:54:56 AM 40.1789 -85.9922 340° North 304 350 24,000 -412 Level Chicago Center
Fri 10:55:58 AM 40.2725 -86.0397 339° North 303 349 23,100 -1,016 Descending Chicago Center
Fri 10:57:00 AM 40.3506 -86.0783 339° North 303 349 21,900 -1,210 Descending Chicago Center
Fri 10:58:02 AM 40.4267 -86.1169 339° North 296 341 20,600 -1,258 Descending Chicago Center
Fri 10:59:04 AM 40.5028 -86.1550 339° North 295 339 19,300 -1,210 Descending Chicago Center
Fri 11:00:06 AM 40.5761 -86.1939 338° Northwest 288 331 18,100 -919 Descending Chicago Center
Fri 11:01:08 AM 40.6494 -86.2292 340° North 283 326 17,400 -1,065 Descending Chicago Center
Fri 11:02:10 AM 40.7331 -86.2714 339° North 286 329 15,900 -1,306 Descending Chicago Center
Fri 11:03:12 AM 40.8092 -86.3092 339° North 292 336 14,700 -1,152 Descending Chicago Center
Fri 11:04:15 AM 40.8842 -86.3483 338° Northwest 289 333 13,500 -1,248 Descending Chicago Center
Fri 11:05:17 AM 40.9739 -86.3944 339° North 288 331 12,100 -1,210 Descending Chicago Center
Fri 11:06:19 AM 41.0408 -86.4436 331° Northwest 283 326 11,000 -532 Descending Chicago Center
Fri 11:07:21 AM 41.0931 -86.5217 312° West 281 323 11,000 -484 Level Chicago Center
Fri 11:08:23 AM 41.1444 -86.5981 312° West 277 319 10,000 -484 Descending Chicago Center
Fri 11:09:25 AM 41.1947 -86.6728 312° West 271 312 10,000  Level Chicago Center
Fri 11:10:27 AM 41.2525 -86.7600 311° West 277 319 10,000  Level Chicago Center
Fri 11:11:29 AM 41.3042 -86.8383 311° West 281 323 10,000 -532 Level Chicago Center
Fri 11:12:31 AM 41.3533 -86.9100 312° West 268 308 8,900 -968 Descending Chicago Center
Fri 11:13:33 AM 41.3983 -86.9808 310° West 256 295 8,000 -919 Descending Chicago Center
Fri 11:14:35 AM 41.4447 -87.0519 311° West 255 293 7,000 -976 Descending Chicago Center
Fri 11:15:36 AM 41.5003 -87.1331 312° West 250 288 6,000 -488 Descending Chicago Center
Fri 11:16:38 AM 41.5303 -87.2117 297° West 243 280 6,000 -242 Level Chicago Center
Fri 11:17:40 AM 41.5592 -87.2928 295° West 243 280 5,500 -484 Descending Chicago Center
Fri 11:18:42 AM 41.5886 -87.3739 296° West 244 281 5,000 -484 Descending Chicago Center
Fri 11:19:44 AM 41.6172 -87.4544 295° West 243 280 4,500 -484 Descending Chicago Center
Fri 11:20:46 AM 41.6464 -87.5364 295° West 224 258 4,000 -242 Descending Chicago Center
Fri 11:21:48 AM 41.6717 -87.5956 300° West 200 230 4,000 -484 Level Chicago Center
Fri 11:22:50 AM 41.7025 -87.6364 315° West 173 199 3,000 -927 Descending Chicago Center
Fri 11:23:51 AM 41.7306 -87.6761 313° West 159 183 2,100 -732 Descending Chicago Center
Fri 11:24:53 AM 41.7522 -87.7064 314° West 136 157 1,500 -581 Descending Chicago Center
Fri 11:25:55 AM 41.7769 -87.7408 314° West 126 145 900 -581 Descending Chicago Center
Fri 11:27:00 AM 41.7833 -87.7500 14° North  Level FlightAware Approximate

Login

Don't have an account? Register now (free) for customized features, flight alerts, and more!